Time;durP1;ratioP1;P1;durP2;ratioP2;P2;SDS_P1;SDS_P2;PMS_P1;PMS_P2;Temp;Humidity;BMP_temperature;BMP_pressure;BME280_temperature;BME280_humidity;BME280_pressure;Samples;Min_cycle;Max_cycle;Signal;HPM_P1;HPM_P2
2023/10/07 00:03:00;;;;;;;10.93;5.30;;;;;;;12.50;74.26;100006.25;7296831;39;20241;31
2023/10/07 00:08:21;;;;;;;9.50;5.20;;;;;;;12.71;73.97;99996.91;7226334;40;20269;31
2023/10/07 00:13:42;;;;;;;11.63;6.10;;;;;;;12.90;73.43;99996.66;7240260;40;20251;31
2023/10/07 00:19:18;;;;;;;9.70;5.70;;;;;;;13.05;73.61;99992.31;7230632;40;20256;31
2023/10/07 00:24:54;;;;;;;12.13;5.93;;;;;;;13.17;72.67;99961.28;7249114;40;20361;31
2023/10/07 00:30:21;;;;;;;11.17;5.70;;;;;;;13.37;72.40;99969.97;7266382;40;21104;31
2023/10/07 00:35:54;;;;;;;13.65;5.60;;;;;;;13.48;71.94;99964.22;7322037;39;20355;31
2023/10/07 00:41:18;;;;;;;10.63;5.90;;;;;;;13.56;71.82;99956.09;7319265;39;20245;31
2023/10/07 00:47:01;;;;;;;10.80;5.90;;;;;;;13.54;71.64;99966.28;7286547;39;20239;31
2023/10/07 00:52:48;;;;;;;10.30;5.80;;;;;;;13.54;71.78;99964.41;7261979;40;20388;31
2023/10/07 01:03:32;;;;;;;8.80;5.50;;;;;;;13.64;71.47;99942.59;7213251;40;20347;31
2023/10/07 01:09:07;;;;;;;9.30;5.57;;;;;;;13.64;71.73;99955.28;7200624;40;20353;31
2023/10/07 01:14:46;;;;;;;11.50;5.80;;;;;;;13.66;71.52;99950.53;7235516;40;20241;31
2023/10/07 01:20:14;;;;;;;8.63;5.27;;;;;;;13.67;71.83;99944.97;7259922;40;20338;31
2023/10/07 01:25:50;;;;;;;10.75;5.85;;;;;;;13.67;71.24;99949.53;7270594;39;21132;31
2023/10/07 01:31:23;;;;;;;11.33;6.30;;;;;;;13.65;71.35;99943.41;7219033;40;20335;31
2023/10/07 01:37:00;;;;;;;10.20;5.30;;;;;;;13.64;71.63;99949.88;7248635;39;20259;31
2023/10/07 01:42:37;;;;;;;10.15;5.70;;;;;;;13.55;71.36;99938.19;7261185;40;20254;31
2023/10/07 01:53:34;;;;;;;10.20;5.50;;;;;;;13.13;72.56;99951.78;7193686;40;20473;31
2023/10/07 01:59:17;;;;;;;10.20;5.80;;;;;;;13.07;72.78;99965.97;7227745;40;20653;31
2023/10/07 02:04:28;;;;;;;12.00;5.70;;;;;;;13.11;72.82;99975.47;7255533;39;20265;31
2023/10/07 02:10:03;;;;;;;10.50;5.50;;;;;;;13.06;73.14;99970.53;7279062;39;20331;31
2023/10/07 02:15:38;;;;;;;10.53;5.43;;;;;;;13.08;72.96;99957.66;7215164;40;20379;31
2023/10/07 02:21:11;;;;;;;10.70;5.65;;;;;;;13.08;73.12;99962.22;7185710;40;20245;31
2023/10/07 02:26:46;;;;;;;10.30;5.40;;;;;;;13.01;72.63;99963.91;7247452;40;21284;31
2023/10/07 02:32:22;;;;;;;10.53;5.50;;;;;;;12.99;73.37;99957.78;7179917;40;20255;31
2023/10/07 02:37:54;;;;;;;12.60;5.15;;;;;;;12.99;73.92;99955.06;7188598;40;20524;31
2023/10/07 02:48:38;;;;;;;11.00;5.10;;;;;;;13.06;73.73;99961.56;7267362;39;21220;31
2023/10/07 02:54:17;;;;;;;10.30;5.00;;;;;;;12.94;72.77;99970.97;7240559;40;20234;31
2023/10/07 02:59:51;;;;;;;13.07;5.23;;;;;;;12.78;74.57;99970.87;7206175;40;20255;31
2023/10/07 03:05:43;;;;;;;10.03;5.03;;;;;;;12.82;73.86;99967.69;7191269;40;20278;31
2023/10/07 03:22:09;;;;;;;8.30;5.00;;;;;;;12.86;74.23;99955.53;7277018;40;20272;31
2023/10/07 03:27:22;;;;;;;12.40;5.40;;;;;;;12.93;74.14;99959.31;7292191;39;20249;31
2023/10/07 03:32:57;;;;;;;11.60;4.60;;;;;;;13.01;73.86;99961.19;7296372;40;20310;31
2023/10/07 03:38:39;;;;;;;10.67;5.10;;;;;;;13.02;75.15;99971.00;7258661;40;20342;31
2023/10/07 03:44:00;;;;;;;12.50;5.00;;;;;;;13.03;74.69;99976.25;7315182;39;20255;31
2023/10/07 03:49:39;;;;;;;8.90;4.90;;;;;;;13.04;75.03;99985.22;7331681;39;21477;31
2023/10/07 03:55:14;;;;;;;9.17;4.97;;;;;;;13.05;74.64;99989.62;7320562;39;20285;31
2023/10/07 04:05:51;;;;;;;10.30;4.83;;;;;;;13.03;75.16;99995.19;7304666;39;20359;31
2023/10/07 04:11:30;;;;;;;12.07;5.73;;;;;;;13.07;74.81;100004.69;7260357;40;20357;31
2023/10/07 04:17:11;;;;;;;11.28;5.10;;;;;;;13.05;74.69;100030.22;7259836;40;21162;31
2023/10/07 04:22:25;;;;;;;9.35;5.10;;;;;;;12.79;74.39;100015.88;7196918;40;20398;31
2023/10/07 04:28:06;;;;;;;13.10;5.65;;;;;;;12.47;75.43;100008.41;7225121;40;21405;31
2023/10/07 04:33:40;;;;;;;9.00;5.00;;;;;;;12.43;75.80;100012.44;7241297;40;20418;31
2023/10/07 04:38:57;;;;;;;11.53;5.37;;;;;;;12.58;75.58;100014.41;7228614;40;20253;31
2023/10/07 04:50:16;;;;;;;11.93;5.57;;;;;;;12.68;75.70;99991.81;7229141;40;20250;31
2023/10/07 04:55:39;;;;;;;7.90;5.07;;;;;;;12.73;75.65;100005.69;7238513;40;20319;31
2023/10/07 05:01:30;;;;;;;9.60;5.50;;;;;;;12.76;75.82;99999.97;7267591;40;20261;31
2023/10/07 05:07:04;;;;;;;11.53;5.47;;;;;;;12.77;76.06;99997.09;7249356;40;20233;31
2023/10/07 05:12:22;;;;;;;8.60;5.00;;;;;;;12.76;75.59;99986.44;7226339;40;20338;31
2023/10/07 05:18:01;;;;;;;9.75;5.30;;;;;;;12.78;76.68;99993.37;7260952;40;20348;31
2023/10/07 05:23:33;;;;;;;8.93;5.20;;;;;;;12.83;76.55;99985.63;7227570;40;20630;31
2023/10/07 05:29:12;;;;;;;10.23;4.80;;;;;;;12.88;75.86;99979.75;7223925;40;20237;31
2023/10/07 05:34:47;;;;;;;12.80;5.17;;;;;;;12.89;76.64;99978.72;7257150;40;21435;31
2023/10/07 05:40:22;;;;;;;11.20;5.70;;;;;;;12.92;76.12;99997.34;7240043;40;20241;31
2023/10/07 05:45:55;;;;;;;12.90;6.30;;;;;;;12.97;76.53;99992.28;7202627;40;20368;31
2023/10/07 05:51:34;;;;;;;11.93;5.33;;;;;;;13.03;76.05;99995.19;7218480;40;20253;31
2023/10/07 05:57:09;;;;;;;11.90;5.90;;;;;;;13.05;76.14;99998.59;7202203;40;20246;31
2023/10/07 06:02:33;;;;;;;10.20;5.60;;;;;;;13.15;75.80;100024.72;7186167;40;20261;31
2023/10/07 06:08:05;;;;;;;12.10;5.40;;;;;;;13.17;75.80;100015.41;6985053;40;21325;31
2023/10/07 06:13:40;;;;;;;9.60;5.17;;;;;;;13.22;76.04;100023.87;7227207;40;20465;31
2023/10/07 06:19:17;;;;;;;10.60;5.60;;;;;;;13.27;75.80;100026.97;7234161;40;21537;31
2023/10/07 06:24:55;;;;;;;12.42;5.42;;;;;;;13.36;75.58;100022.41;7259267;40;20262;31
2023/10/07 06:30:28;;;;;;;10.10;5.45;;;;;;;13.37;75.50;100016.84;7209012;40;20246;31
2023/10/07 06:35:51;;;;;;;11.93;5.60;;;;;;;13.49;75.22;100030.94;7246241;39;20237;31
2023/10/07 06:41:22;;;;;;;11.40;5.30;;;;;;;13.60;74.90;100032.50;7288140;40;20240;31
2023/10/07 06:47:02;;;;;;;10.55;5.10;;;;;;;13.70;74.65;100033.16;7295709;39;20348;31
2023/10/07 06:52:33;;;;;;;7.82;4.48;;;;;;;13.73;74.87;100036.44;7287564;39;20245;31
2023/10/07 06:58:11;;;;;;;9.83;4.93;;;;;;;13.89;74.37;100049.12;7272035;39;20346;31
2023/10/07 07:03:45;;;;;;;10.07;4.13;;;;;;;13.89;74.41;100050.00;7231421;40;20233;31
2023/10/07 07:15:05;;;;;;;10.03;4.80;;;;;;;13.98;74.18;100048.13;7318086;39;20240;31
2023/10/07 07:20:54;;;;;;;9.27;5.13;;;;;;;14.07;73.88;100040.87;7257949;40;20254;31
2023/10/07 07:26:30;;;;;;;9.56;4.86;;;;;;;14.10;73.80;100052.22;7262257;40;20276;31
2023/10/07 07:32:04;;;;;;;9.73;5.00;;;;;;;14.12;73.86;100055.62;7218190;40;21077;31
2023/10/07 07:37:40;;;;;;;7.80;4.95;;;;;;;14.10;73.80;100041.38;7231242;40;20260;31
2023/10/07 07:43:19;;;;;;;9.83;4.87;;;;;;;14.06;74.13;100044.59;7224262;40;20342;31
2023/10/07 07:48:54;;;;;;;10.27;4.93;;;;;;;14.09;74.27;100049.66;7236269;40;20300;31
2023/10/07 07:59:33;;;;;;;8.67;4.87;;;;;;;14.39;73.92;100066.12;7282775;39;20418;31
2023/10/07 08:10:20;;;;;;;9.20;5.00;;;;;;;14.55;73.38;100067.16;7307203;39;20274;31
2023/10/07 08:20:40;;;;;;;9.60;4.50;;;;;;;14.60;72.79;100081.94;7295017;39;21070;31
2023/10/07 08:26:20;;;;;;;18.63;5.27;;;;;;;14.59;72.23;100087.50;7296494;40;20267;31
2023/10/07 08:31:43;;;;;;;8.95;4.55;;;;;;;14.65;71.74;100079.56;7296661;39;20292;31
2023/10/07 08:37:02;;;;;;;7.90;4.30;;;;;;;14.80;72.09;100087.81;7273854;39;20481;31
2023/10/07 08:42:44;;;;;;;12.23;5.00;;;;;;;14.92;71.50;100085.63;7241767;40;20254;31
2023/10/07 08:53:16;;;;;;;9.00;5.00;;;;;;;15.22;70.47;100083.00;7216916;40;20261;31
2023/10/07 09:04:00;;;;;;;12.40;4.50;;;;;;;15.60;70.18;100075.06;7297916;40;20283;31
2023/10/07 09:14:40;;;;;;;7.00;3.90;;;;;;;16.10;69.70;100075.41;7313271;39;20270;31
2023/10/07 09:20:29;;;;;;;7.88;4.06;;;;;;;16.21;69.24;100080.44;7339419;39;20318;31
2023/10/07 09:25:53;;;;;;;11.45;4.20;;;;;;;16.32;68.73;100086.50;7256510;40;20319;31
2023/10/07 09:31:30;;;;;;;7.45;3.70;;;;;;;16.34;68.91;100096.16;7257721;40;20349;31
2023/10/07 09:37:21;;;;;;;8.23;4.00;;;;;;;16.42;67.95;100092.53;7198511;40;20330;31
2023/10/07 09:48:05;;;;;;;4.97;3.37;;;;;;;16.55;67.65;100096.34;7217460;40;20724;31
2023/10/07 09:58:53;;;;;;;;;;;;;;;;;;;;;
2023/10/07 10:04:28;;;;;;;8.55;3.50;;;;;;;16.56;68.54;100103.47;7297194;39;20243;31
2023/10/07 10:10:12;;;;;;;8.23;4.13;;;;;;;16.59;67.94;100092.25;7276801;39;20249;31
2023/10/07 10:15:52;;;;;;;6.60;3.60;;;;;;;16.56;67.74;100100.75;7260203;40;20239;31
2023/10/07 10:21:30;;;;;;;8.20;4.27;;;;;;;16.59;68.23;100102.28;7203032;40;20258;31
2023/10/07 10:32:07;;;;;;;7.20;3.93;;;;;;;16.68;66.97;100093.03;7327263;39;21927;31
2023/10/07 10:37:42;;;;;;;8.93;4.70;;;;;;;16.82;67.61;100089.50;7247841;40;20262;31
2023/10/07 10:43:18;;;;;;;11.20;5.60;;;;;;;16.97;67.21;100095.81;7297254;39;20268;31
2023/10/07 10:48:55;;;;;;;6.87;3.97;;;;;;;17.11;66.81;100085.97;7259130;40;20253;31
2023/10/07 10:54:31;;;;;;;6.90;3.84;;;;;;;17.24;66.74;100083.44;7274823;40;21147;31
2023/10/07 10:59:51;;;;;;;6.30;3.87;;;;;;;17.26;65.82;100075.06;7319065;39;20259;31
2023/10/07 11:05:27;;;;;;;6.10;3.60;;;;;;;17.23;66.02;100067.28;7279186;40;20233;31
2023/10/07 11:11:10;;;;;;;6.63;3.80;;;;;;;17.25;66.20;100063.31;7202847;40;20242;31
2023/10/07 11:16:24;;;;;;;7.43;4.30;;;;;;;17.33;65.35;100065.94;7217189;40;20479;31
2023/10/07 11:27:08;;;;;;;7.77;4.17;;;;;;;17.54;64.86;100055.13;7308564;39;20272;31
2023/10/07 11:37:32;;;;;;;8.53;3.63;;;;;;;17.84;64.11;100047.75;7308875;39;20631;31
2023/10/07 11:48:11;;;;;;;6.18;3.66;;;;;;;18.11;63.30;100040.72;7315836;39;20269;31
2023/10/07 11:53:45;;;;;;;8.13;4.00;;;;;;;18.69;62.89;100039.56;7297436;40;20244;31
2023/10/07 11:59:21;;;;;;;7.23;3.90;;;;;;;19.14;61.77;100031.88;7276753;40;20252;31
2023/10/07 12:04:59;;;;;;;8.20;3.50;;;;;;;19.14;61.27;100031.88;7259459;40;20256;31
2023/10/07 12:10:21;;;;;;;11.10;4.50;;;;;;;19.01;60.90;100035.38;7233609;40;20240;31
2023/10/07 12:15:54;;;;;;;7.40;4.20;;;;;;;18.81;61.64;100032.53;7273542;39;20315;31
2023/10/07 12:32:20;;;;;;;8.70;3.93;;;;;;;19.45;59.65;100021.34;7360678;39;20244;31
2023/10/07 12:43:06;;;;;;;6.93;3.77;;;;;;;19.47;58.79;100021.16;7289373;39;21111;31
2023/10/07 12:48:26;;;;;;;6.20;3.50;;;;;;;19.56;58.99;100015.31;7318375;39;20241;31
2023/10/07 12:54:00;;;;;;;5.20;3.40;;;;;;;19.91;57.54;100013.31;7284988;40;20245;31
2023/10/07 12:59:35;;;;;;;8.50;3.37;;;;;;;19.98;58.43;100011.44;7280259;39;20258;31
2023/10/07 13:04:59;;;;;;;6.30;3.45;;;;;;;20.14;57.33;100021.16;7200036;40;20560;31
2023/10/07 13:10:39;;;;;;;5.55;3.45;;;;;;;20.23;57.48;100028.09;7228220;40;20305;31
2023/10/07 13:16:21;;;;;;;8.67;3.67;;;;;;;20.04;56.37;100031.66;7199305;40;20994;31
2023/10/07 13:21:59;;;;;;;6.50;3.40;;;;;;;20.07;57.95;100025.75;6984853;40;20313;31
2023/10/07 13:27:31;;;;;;;7.10;3.60;;;;;;;19.98;57.06;100035.22;7217118;40;20477;31
2023/10/07 13:33:08;;;;;;;7.05;3.60;;;;;;;20.19;57.33;100024.94;7232689;40;20270;31
2023/10/07 13:43:53;;;;;;;7.05;4.07;;;;;;;20.63;56.19;100018.88;7251147;40;21172;31
2023/10/07 13:54:47;;;;;;;8.33;3.70;;;;;;;20.83;55.93;100034.47;7344690;39;20343;31
2023/10/07 14:00:28;;;;;;;5.77;3.43;;;;;;;20.89;55.34;100022.66;7317781;39;20267;31
2023/10/07 14:11:00;;;;;;;8.10;3.80;;;;;;;20.84;55.41;100012.34;7305074;40;20263;31
2023/10/07 14:16:38;;;;;;;6.60;3.67;;;;;;;20.85;54.82;100014.00;7295376;39;20296;31
2023/10/07 14:22:00;;;;;;;7.30;3.90;;;;;;;20.95;54.79;100008.09;7307126;39;20236;31
2023/10/07 14:27:39;;;;;;;7.97;3.78;;;;;;;20.92;53.86;100003.91;7300232;40;20505;31
2023/10/07 14:33:00;;;;;;;5.43;3.70;;;;;;;20.90;55.36;100010.63;7297901;40;20244;31
2023/10/07 14:38:34;;;;;;;4.40;3.30;;;;;;;20.87;54.61;100003.69;7298809;39;20344;31
2023/10/07 14:44:11;;;;;;;5.60;3.85;;;;;;;20.86;55.44;100001.16;7277001;40;20260;31
2023/10/07 14:49:46;;;;;;;6.90;3.90;;;;;;;20.88;56.41;99999.06;7277243;40;20244;31
2023/10/07 14:55:22;;;;;;;8.10;3.75;;;;;;;20.84;55.02;100011.50;7246604;40;20241;31
2023/10/07 15:00:57;;;;;;;7.97;3.77;;;;;;;20.76;55.19;99998.84;7291548;40;22079;31
2023/10/07 15:06:34;;;;;;;10.95;3.75;;;;;;;20.69;55.23;99993.37;7262309;40;20457;31
2023/10/07 15:11:56;;;;;;;7.62;3.83;;;;;;;20.63;55.53;99991.47;7198334;40;20446;31
2023/10/07 15:17:31;;;;;;;6.40;3.62;;;;;;;20.54;54.86;99994.66;7229582;40;20241;31
2023/10/07 15:23:09;;;;;;;8.23;3.80;;;;;;;20.54;56.08;100011.09;7177562;40;20250;31
2023/10/07 15:28:29;;;;;;;6.90;3.70;;;;;;;20.49;56.13;99998.03;7217161;40;20245;31
2023/10/07 15:34:08;;;;;;;12.42;4.70;;;;;;;20.43;56.38;99996.13;7257185;40;20242;31
2023/10/07 15:39:44;;;;;;;6.85;3.40;;;;;;;20.39;56.13;99994.03;7236903;40;20253;31
2023/10/07 15:45:21;;;;;;;5.60;3.65;;;;;;;20.36;57.54;99997.19;7285857;39;20226;31
2023/10/07 15:51:00;;;;;;;5.93;4.00;;;;;;;20.33;56.00;99997.59;7255874;40;20244;31
2023/10/07 15:56:34;;;;;;;7.97;3.60;;;;;;;20.30;57.02;99995.28;7269568;39;20335;31
2023/10/07 16:02:09;;;;;;;5.73;3.63;;;;;;;20.28;58.35;100000.94;7236676;40;20246;31
2023/10/07 16:07:46;;;;;;;5.20;3.27;;;;;;;20.19;57.27;99993.97;7191155;40;20977;31
2023/10/07 16:13:22;;;;;;;5.63;3.60;;;;;;;20.12;58.34;99993.13;7170963;40;20250;31
2023/10/07 16:18:58;;;;;;;5.20;3.40;;;;;;;20.06;57.08;99978.37;7160833;40;20309;31
2023/10/07 16:24:35;;;;;;;6.53;3.60;;;;;;;20.01;58.77;99983.63;7198147;40;20383;31
2023/10/07 16:35:15;;;;;;;7.38;3.86;;;;;;;19.94;58.99;99990.16;7283883;40;20268;31
2023/10/07 16:45:55;;;;;;;6.87;4.10;;;;;;;19.78;59.92;99994.13;7282185;39;21148;31
2023/10/07 16:56:36;;;;;;;7.20;3.72;;;;;;;19.68;59.42;99994.53;7275627;40;20370;31
2023/10/07 17:02:13;;;;;;;5.40;3.67;;;;;;;19.59;60.72;99984.81;7203504;40;20253;31
2023/10/07 17:07:34;;;;;;;6.55;4.00;;;;;;;19.52;60.11;99986.69;7210477;40;20309;31
2023/10/07 17:13:09;;;;;;;6.10;3.50;;;;;;;19.50;61.20;99987.94;7194446;40;20254;31
2023/10/07 17:18:44;;;;;;;4.70;3.30;;;;;;;19.41;61.02;99978.19;7234663;40;20254;31
2023/10/07 17:24:05;;;;;;;8.35;4.00;;;;;;;19.35;60.97;99982.56;7266560;40;20342;31
2023/10/07 17:29:41;;;;;;;8.77;4.10;;;;;;;19.27;60.94;99991.78;7268118;40;20261;31
2023/10/07 17:35:19;;;;;;;6.13;3.87;;;;;;;19.20;61.73;99985.47;7259334;40;20241;31
2023/10/07 17:40:54;;;;;;;9.10;4.60;;;;;;;19.17;61.67;99980.41;7224306;40;20276;31
2023/10/07 17:46:19;;;;;;;7.38;4.34;;;;;;;19.13;61.29;99981.84;7219331;40;20242;31
2023/10/07 17:51:56;;;;;;;8.00;4.40;;;;;;;19.10;61.01;99984.13;7256194;40;20244;31
2023/10/07 17:57:31;;;;;;;7.90;3.90;;;;;;;19.08;61.85;99988.97;7256508;40;20234;31
2023/10/07 18:02:51;;;;;;;8.55;3.83;;;;;;;19.06;60.94;99985.59;7244819;40;20252;31
2023/10/07 18:08:29;;;;;;;8.30;3.90;;;;;;;19.02;61.91;99978.84;7258628;40;20241;31
2023/10/07 18:13:51;;;;;;;5.57;3.80;;;;;;;19.10;61.61;99978.66;7255348;40;20257;31
2023/10/07 18:19:10;;;;;;;7.45;4.05;;;;;;;19.05;60.66;99976.53;7274005;40;20290;31
2023/10/07 18:24:46;;;;;;;6.83;3.63;;;;;;;18.96;60.55;99977.75;7280878;40;20223;31
2023/10/07 18:30:08;;;;;;;8.63;3.90;;;;;;;18.92;61.81;99982.78;7226610;40;20367;31
2023/10/07 18:35:29;;;;;;;7.03;4.10;;;;;;;18.95;60.89;99986.16;7221391;40;20273;31
2023/10/07 18:46:09;;;;;;;7.70;3.82;;;;;;;18.90;60.87;99973.97;7261580;39;20287;31
2023/10/07 18:51:44;;;;;;;12.92;4.04;;;;;;;18.88;60.65;99984.22;7262086;39;20252;31
2023/10/07 18:57:19;;;;;;;7.30;4.13;;;;;;;18.87;61.18;99985.28;7274664;40;20238;31
2023/10/07 19:03:01;;;;;;;6.27;4.20;;;;;;;18.82;61.63;99976.00;7301468;40;20255;31
2023/10/07 19:08:24;;;;;;;9.93;5.20;;;;;;;18.83;61.40;99985.87;7230819;40;20276;31
2023/10/07 19:13:59;;;;;;;7.10;4.40;;;;;;;18.81;61.75;99982.50;7227301;40;20241;31
2023/10/07 19:19:38;;;;;;;8.75;3.65;;;;;;;18.83;61.34;99983.13;7215150;40;20297;31
2023/10/07 19:30:44;;;;;;;5.90;3.40;;;;;;;18.85;60.93;99987.38;7368048;38;9819899;31
2023/10/07 19:36:18;;;;;;;7.95;3.65;;;;;;;18.83;61.52;100005.84;7406846;39;21294;31
2023/10/07 19:41:40;;;;;;;6.60;4.00;;;;;;;18.83;60.77;100005.84;7305097;39;20706;31
2023/10/07 19:47:21;;;;;;;5.60;3.67;;;;;;;18.80;61.89;100003.53;7325092;39;20780;31
2023/10/07 19:52:55;;;;;;;6.63;3.73;;;;;;;18.76;61.69;99999.50;7310363;39;20268;31
2023/10/07 20:03:51;;;;;;;6.60;3.60;;;;;;;18.72;62.04;99991.91;7311337;39;20260;31
2023/10/07 20:14:30;;;;;;;7.68;3.64;;;;;;;18.69;62.06;99992.31;7322741;39;20348;31
2023/10/07 20:20:10;;;;;;;7.18;3.72;;;;;;;18.70;61.17;100007.63;7302665;39;20240;31
2023/10/07 20:25:29;;;;;;;6.45;3.85;;;;;;;18.66;61.70;100004.47;7272928;40;20336;31
2023/10/07 20:31:11;;;;;;;6.97;3.37;;;;;;;18.62;61.87;100008.62;7264658;40;20249;31
2023/10/07 20:36:49;;;;;;;6.70;3.40;;;;;;;18.59;61.13;99998.12;7257944;40;20814;31
2023/10/07 20:42:09;;;;;;;7.18;3.42;;;;;;;18.60;61.32;100013.47;7245050;40;20267;31
2023/10/07 20:47:44;;;;;;;6.40;3.40;;;;;;;18.59;61.26;100014.50;7248705;39;20244;31
2023/10/07 20:53:19;;;;;;;8.35;3.50;;;;;;;18.60;61.46;100012.63;7226668;40;20250;31
2023/10/07 20:58:54;;;;;;;6.03;3.40;;;;;;;18.62;61.13;100013.25;7267155;40;20349;31
2023/10/07 21:04:30;;;;;;;5.55;3.30;;;;;;;18.59;61.88;100014.50;7259610;40;20327;31
2023/10/07 21:09:50;;;;;;;5.80;3.33;;;;;;;18.64;60.98;100001.09;7229500;40;20366;31
2023/10/07 21:15:21;;;;;;;7.60;3.40;;;;;;;18.65;61.48;99991.03;7236574;40;20261;31
2023/10/07 21:20:56;;;;;;;7.37;3.83;;;;;;;18.62;62.07;99994.97;7255565;40;20227;31
2023/10/07 21:26:31;;;;;;;6.60;3.60;;;;;;;18.60;62.23;100001.69;7258227;40;20264;31
2023/10/07 21:31:49;;;;;;;5.70;3.60;;;;;;;18.60;61.98;100021.66;7258503;40;20241;31
2023/10/07 21:37:23;;;;;;;7.17;3.87;;;;;;;18.53;62.00;100018.00;7248719;40;20279;31
2023/10/07 21:42:58;;;;;;;5.83;3.73;;;;;;;18.48;62.87;100018.56;7257915;39;20272;31
2023/10/07 21:48:33;;;;;;;8.20;4.20;;;;;;;18.50;62.94;100025.72;7267378;39;20242;31
2023/10/07 21:54:10;;;;;;;7.93;3.60;;;;;;;18.43;62.63;100033.84;7274906;39;20261;31
2023/10/07 21:59:45;;;;;;;5.60;3.40;;;;;;;18.45;62.97;100029.91;7241182;40;20262;31
2023/10/07 22:05:21;;;;;;;6.44;3.38;;;;;;;18.43;62.61;100037.44;7266847;40;20351;31
2023/10/07 22:10:57;;;;;;;4.90;3.15;;;;;;;18.46;63.71;100026.13;7250080;40;20246;31
2023/10/07 22:16:17;;;;;;;5.53;3.33;;;;;;;18.45;63.58;100031.78;7207169;40;20350;31
2023/10/07 22:21:53;;;;;;;7.63;3.80;;;;;;;18.44;63.26;100038.28;7243767;40;20762;31
2023/10/07 22:27:29;;;;;;;8.10;3.30;;;;;;;18.46;63.54;100026.13;7259049;40;20246;31
2023/10/07 22:33:11;;;;;;;7.17;3.27;;;;;;;18.42;63.83;100029.44;7219134;40;20874;31
2023/10/07 22:38:26;;;;;;;4.17;2.93;;;;;;;18.40;64.09;100023.31;7277667;40;20249;31
2023/10/07 22:44:00;;;;;;;7.28;3.20;;;;;;;18.28;64.15;100014.84;7265509;39;20293;31
2023/10/07 22:49:33;;;;;;;5.40;3.30;;;;;;;18.23;64.39;100014.56;7236963;40;20245;31
2023/10/07 22:55:14;;;;;;;6.13;3.43;;;;;;;18.16;64.55;100005.50;7232489;40;20347;31
2023/10/07 23:00:50;;;;;;;6.20;3.20;;;;;;;18.10;64.84;100003.53;7218342;40;20238;31
2023/10/07 23:06:37;;;;;;;6.30;3.73;;;;;;;18.08;64.75;99997.41;7225870;40;20257;31
2023/10/07 23:11:46;;;;;;;6.05;3.30;;;;;;;18.14;64.69;99993.91;7201979;40;20482;31
2023/10/07 23:17:25;;;;;;;5.90;3.50;;;;;;;18.12;64.34;99992.44;7243124;40;20265;31
2023/10/07 23:28:20;;;;;;;6.60;3.30;;;;;;;18.09;65.33;99990.94;7294309;39;20244;31
2023/10/07 23:33:48;;;;;;;7.36;3.40;;;;;;;18.09;65.84;99985.47;7282520;40;20259;31
2023/10/07 23:39:18;;;;;;;6.07;3.30;;;;;;;18.12;65.25;99992.44;7293410;39;20305;31
2023/10/07 23:44:32;;;;;;;6.15;3.60;;;;;;;18.11;65.76;99988.00;7342015;39;20259;31
2023/10/07 23:50:15;;;;;;;9.20;3.60;;;;;;;18.05;66.74;99977.87;7320259;39;20337;31
2023/10/07 23:55:43;;;;;;;5.35;3.35;;;;;;;18.09;66.60;99977.28;7220507;40;20321;31
